Portada
METAR-TAF:

METAR-TAF

Aeropuertos :

Tarbes Lourdes, Francia

Aeropuerto de Tarbes-Lourdes-Pirineos

latitud: 43-11N, longitud: 000-00W, altitud: 379 m

Observación

El informe se hizo hace 47 minutos, a las 03:00 UTC
Viento 6 kt del sur
Temperatura 0°C
Humedad 80%
Presión 1019 hPa
Visibilidad 10 km o más
sin nubes por debajo de 1500 m y sin presencia de cumulonimbus.

METAR: LFBT 220300Z AUTO 18006KT CAVOK 00/M03 Q1019 NOSIG

Hora: 04:47 (03:47 UTC)

Pronóstico

El informe se hizo hace 4 horas y 47 minutos, a las 23:00 UTC
Pronóstico válido del 22 a las 00 UTC al 22 a las 24 UTC
Viento 3 kt con dirección variable
Visibilidad 10 km o más
sin nubes por debajo de 1500 m y sin presencia de cumulonimbus.
Temporalmente
del 22 a las 12 UTC al 22 a las 24 UTC
Cielo nuboso a una altura de 6000 ft

TAF: LFBT 212300Z 2200/2224 VRB03KT CAVOK TEMPO 2212/2224 BKN060

Observaciones y pronósticos meteorológicos de más de 4000 aeropuertos (mensajes METAR y TAF).

Los puntos amarillos y rojos representan las estaciones disponibles.

Ponga el ratón en el punto deseado para ver el nombre de la estación.

Haga clic para ver las observaciones y los pronósticos meteorológicos.

Para cambiar el mapa : haga clic en los botones verdes con una cruz de color negro para hacer un zoom, en el botón verde con un guión para alejar o en las flechas verdes para mapas adyacentes.


METAR-TAF: